Time;durP1;ratioP1;P1;durP2;ratioP2;P2;SDS_P1;SDS_P2;PMS_P1;PMS_P2;Temp;Humidity;BMP_temperature;BMP_pressure;BME280_temperature;BME280_humidity;BME280_pressure;Samples;Min_cycle;Max_cycle;Signal;HPM_P1;HPM_P2
2021/11/26 00:02:16;;;;;;;23.30;10.07;;;3.70;97.30;;;;;;5052552;28;20168;-82
2021/11/26 00:04:42;;;;;;;28.13;11.87;;;3.70;97.30;;;;;;5053472;28;20454;-82
2021/11/26 00:07:09;;;;;;;26.70;10.20;;;3.70;97.30;;;;;;5052505;28;20456;-82
2021/11/26 00:09:35;;;;;;;27.77;10.30;;;3.70;97.30;;;;;;5052361;28;20665;-82
2021/11/26 00:12:01;;;;;;;22.67;11.17;;;3.60;97.30;;;;;;5052144;28;20410;-82
2021/11/26 00:14:30;;;;;;;25.57;12.10;;;3.70;97.30;;;;;;5053649;28;20420;-82
2021/11/26 00:16:59;;;;;;;25.00;10.77;;;3.60;97.30;;;;;;5053420;28;20442;-83
2021/11/26 00:19:26;;;;;;;21.63;9.23;;;3.60;97.30;;;;;;5052818;28;20422;-82
2021/11/26 00:21:53;;;;;;;23.03;10.00;;;3.60;97.30;;;;;;5052856;28;20422;-82
2021/11/26 00:24:18;;;;;;;24.73;11.03;;;3.50;97.30;;;;;;5052583;28;20450;-81
2021/11/26 00:26:46;;;;;;;22.57;10.40;;;3.60;97.30;;;;;;5051936;28;20554;-82
2021/11/26 00:29:11;;;;;;;22.80;10.27;;;3.50;97.30;;;;;;5051922;28;20176;-82
2021/11/26 00:31:37;;;;;;;21.90;9.67;;;3.50;97.30;;;;;;5051511;28;20794;-82
2021/11/26 00:34:05;;;;;;;28.43;11.57;;;3.50;97.30;;;;;;5052296;28;20237;-81
2021/11/26 00:36:31;;;;;;;24.00;9.37;;;3.50;97.30;;;;;;5051559;28;20441;-82
2021/11/26 00:38:57;;;;;;;22.03;9.70;;;3.40;97.30;;;;;;5051607;28;20414;-82
2021/11/26 00:41:23;;;;;;;27.77;10.20;;;3.40;97.30;;;;;;5051802;28;20418;-82
2021/11/26 00:43:50;;;;;;;21.67;9.93;;;3.30;97.30;;;;;;5051573;28;20461;-82
2021/11/26 00:46:16;;;;;;;26.03;10.57;;;3.30;97.30;;;;;;5053027;28;20426;-81
2021/11/26 00:48:41;;;;;;;24.87;11.10;;;3.20;97.30;;;;;;5051684;28;20414;-81
2021/11/26 00:51:07;;;;;;;22.50;10.30;;;3.20;97.30;;;;;;5052052;28;20243;-81
2021/11/26 00:53:33;;;;;;;24.17;10.87;;;3.20;97.30;;;;;;5055161;28;20324;-81
2021/11/26 00:55:59;;;;;;;24.90;10.50;;;3.10;97.30;;;;;;5056848;28;20223;-80
2021/11/26 00:58:24;;;;;;;18.27;9.20;;;3.10;97.30;;;;;;5057210;28;20413;-82
2021/11/26 01:00:50;;;;;;;24.07;11.13;;;3.10;97.30;;;;;;5055812;28;20172;-82
2021/11/26 01:03:16;;;;;;;24.20;9.07;;;3.00;97.30;;;;;;5055965;28;20176;-82
2021/11/26 01:05:41;;;;;;;18.37;8.93;;;3.00;97.30;;;;;;5055379;28;20249;-81
2021/11/26 01:08:07;;;;;;;23.93;11.00;;;3.00;97.30;;;;;;5055554;28;20548;-82
2021/11/26 01:10:33;;;;;;;23.10;9.43;;;3.00;97.30;;;;;;5055583;28;20178;-82
2021/11/26 01:12:59;;;;;;;22.33;9.60;;;3.00;97.30;;;;;;5055445;28;20176;-82
2021/11/26 01:15:27;;;;;;;24.60;10.37;;;3.00;97.30;;;;;;5055505;28;20442;-81
2021/11/26 01:17:53;;;;;;;22.07;10.10;;;3.00;97.30;;;;;;5055187;28;20234;-82
2021/11/26 01:20:21;;;;;;;21.83;9.40;;;3.00;97.30;;;;;;5054630;28;20422;-81
2021/11/26 01:22:47;;;;;;;25.33;9.80;;;3.00;97.30;;;;;;5055886;28;20227;-82
2021/11/26 01:25:14;;;;;;;29.00;10.40;;;3.00;97.30;;;;;;5055056;28;20489;-82
2021/11/26 01:27:40;;;;;;;33.07;10.77;;;3.00;97.30;;;;;;5054735;28;20178;-82
2021/11/26 01:30:15;;;;;;;23.47;8.90;;;3.00;97.30;;;;;;5054854;28;20415;-82
2021/11/26 01:32:42;;;;;;;21.77;9.33;;;3.00;97.30;;;;;;5054407;28;20788;-82
2021/11/26 01:35:08;;;;;;;21.30;9.07;;;3.00;97.30;;;;;;5054602;28;20421;-83
2021/11/26 01:37:34;;;;;;;29.57;11.10;;;2.90;97.30;;;;;;5054482;28;20438;-82
2021/11/26 01:39:59;;;;;;;25.17;10.50;;;2.90;97.30;;;;;;5054427;28;20421;-83
2021/11/26 01:42:25;;;;;;;25.43;11.03;;;2.90;97.30;;;;;;5054668;28;20199;-82
2021/11/26 01:44:51;;;;;;;25.23;9.57;;;2.90;97.30;;;;;;5054738;28;20235;-82
2021/11/26 01:47:16;;;;;;;23.27;9.37;;;2.80;97.30;;;;;;5054435;28;20195;-81
2021/11/26 01:49:42;;;;;;;22.37;10.10;;;2.80;97.30;;;;;;5055814;28;20558;-83
2021/11/26 01:52:07;;;;;;;19.37;9.03;;;2.80;97.30;;;;;;5055527;28;20172;-82
2021/11/26 01:54:33;;;;;;;23.07;9.73;;;2.80;97.30;;;;;;5054362;28;20195;-80
2021/11/26 01:56:59;;;;;;;19.00;9.40;;;2.70;97.30;;;;;;5055177;28;20208;-81
2021/11/26 01:59:24;;;;;;;18.63;8.77;;;2.70;97.30;;;;;;5053878;28;20183;-83
2021/11/26 02:01:50;;;;;;;25.10;9.73;;;2.60;97.30;;;;;;5054666;28;20179;-83
2021/11/26 02:04:15;;;;;;;22.60;9.40;;;2.60;97.30;;;;;;5052928;28;20203;-81
2021/11/26 02:06:41;;;;;;;20.97;8.70;;;2.60;97.30;;;;;;5055064;28;20214;-82
2021/11/26 02:09:07;;;;;;;22.40;9.40;;;2.60;97.30;;;;;;5054147;28;20186;-83
2021/11/26 02:11:33;;;;;;;24.53;9.47;;;2.60;97.30;;;;;;5055017;28;20178;-83
2021/11/26 02:13:58;;;;;;;19.13;8.80;;;2.50;97.30;;;;;;5054084;28;20426;-82
2021/11/26 02:16:24;;;;;;;26.23;9.90;;;2.50;97.30;;;;;;5054157;28;20540;-82
2021/11/26 02:18:50;;;;;;;26.33;10.70;;;2.60;97.30;;;;;;5054555;28;20179;-83
2021/11/26 02:21:18;;;;;;;22.73;10.13;;;2.60;97.30;;;;;;5054422;28;20179;-82
2021/11/26 02:23:45;;;;;;;19.83;8.60;;;2.60;97.30;;;;;;5053662;28;20606;-79
2021/11/26 02:26:10;;;;;;;22.83;9.73;;;2.60;97.30;;;;;;5054110;28;20500;-81
2021/11/26 02:28:36;;;;;;;23.50;9.07;;;2.70;97.30;;;;;;5054718;28;20919;-81
2021/11/26 02:31:02;;;;;;;25.93;9.90;;;2.70;97.30;;;;;;5054488;28;20265;-81
2021/11/26 02:33:28;;;;;;;25.43;8.97;;;2.80;97.30;;;;;;5053874;28;20557;-81
2021/11/26 02:35:54;;;;;;;30.80;10.57;;;2.80;97.30;;;;;;5053481;28;20442;-82
2021/11/26 02:38:22;;;;;;;22.63;9.20;;;2.80;97.30;;;;;;5053874;28;20441;-81
2021/11/26 02:40:48;;;;;;;24.57;9.73;;;2.90;97.30;;;;;;5053259;28;20180;-83
2021/11/26 02:43:15;;;;;;;21.80;10.37;;;2.90;97.30;;;;;;5054868;28;20418;-82
2021/11/26 02:45:44;;;;;;;22.30;9.37;;;2.90;97.30;;;;;;5053634;28;20466;-82
2021/11/26 02:48:12;;;;;;;23.03;9.23;;;2.90;97.30;;;;;;5052835;28;20472;-82
2021/11/26 02:50:38;;;;;;;25.70;11.10;;;2.90;97.30;;;;;;5048338;28;20787;-81
2021/11/26 02:53:04;;;;;;;24.80;10.23;;;3.00;97.30;;;;;;5048706;28;20425;-82
2021/11/26 02:55:33;;;;;;;27.07;9.57;;;3.00;97.30;;;;;;5052737;28;20199;-81
2021/11/26 02:57:59;;;;;;;28.83;10.57;;;3.00;97.30;;;;;;5053312;28;20423;-81
2021/11/26 03:00:27;;;;;;;34.10;11.47;;;3.00;97.30;;;;;;5054394;28;20963;-81
2021/11/26 03:02:53;;;;;;;21.40;9.30;;;3.10;97.30;;;;;;5052868;28;20426;-82
2021/11/26 03:05:19;;;;;;;25.83;10.70;;;3.10;97.30;;;;;;5053567;28;20532;-82
2021/11/26 03:07:45;;;;;;;24.70;11.00;;;3.10;97.30;;;;;;5053910;28;20418;-81
2021/11/26 03:10:17;;;;;;;18.27;9.60;;;3.10;97.30;;;;;;5054025;28;20428;-80
2021/11/26 03:12:48;;;;;;;19.13;9.60;;;3.10;97.30;;;;;;5054010;28;20808;-81
2021/11/26 03:15:15;;;;;;;22.30;10.03;;;3.10;97.30;;;;;;5054186;28;20442;-81
2021/11/26 03:17:41;;;;;;;27.00;9.83;;;3.10;97.30;;;;;;5053718;28;20426;-82
2021/11/26 03:20:08;;;;;;;22.93;8.73;;;3.10;97.30;;;;;;5053976;28;20414;-79
2021/11/26 03:22:33;;;;;;;27.67;10.17;;;3.10;97.30;;;;;;5053590;28;20243;-81
2021/11/26 03:24:59;;;;;;;24.13;8.67;;;3.20;97.30;;;;;;5054119;28;21121;-80
2021/11/26 03:27:28;;;;;;;25.23;8.70;;;3.20;97.30;;;;;;5053355;28;20663;-81
2021/11/26 03:29:54;;;;;;;23.33;11.03;;;3.20;97.30;;;;;;5053221;28;20553;-82
2021/11/26 03:32:19;;;;;;;22.93;9.03;;;3.20;97.30;;;;;;5053357;28;20421;-82
2021/11/26 03:34:45;;;;;;;26.00;9.80;;;3.20;97.30;;;;;;5054967;28;20646;-82
2021/11/26 03:37:10;;;;;;;25.70;10.50;;;3.20;97.30;;;;;;5052858;28;20233;-82
2021/11/26 03:39:36;;;;;;;24.20;9.63;;;3.20;97.30;;;;;;5053130;28;20188;-81
2021/11/26 03:42:02;;;;;;;31.37;10.77;;;3.20;97.30;;;;;;5053953;28;20200;-81
2021/11/26 03:44:27;;;;;;;26.20;8.90;;;3.20;97.30;;;;;;5052530;28;20231;-83
2021/11/26 03:46:53;;;;;;;22.23;9.43;;;3.20;97.30;;;;;;5052559;28;20239;-82
2021/11/26 03:49:18;;;;;;;27.90;10.23;;;3.20;97.30;;;;;;5052983;28;20229;-82
2021/11/26 03:51:44;;;;;;;21.30;8.90;;;3.20;97.30;;;;;;5054075;28;20178;-82
2021/11/26 03:54:10;;;;;;;28.20;10.90;;;3.10;97.30;;;;;;5052500;28;20180;-82
2021/11/26 03:56:35;;;;;;;18.63;9.33;;;3.10;97.30;;;;;;5052718;28;20203;-82
2021/11/26 03:59:01;;;;;;;20.83;8.77;;;3.10;97.30;;;;;;5052366;28;20198;-82
2021/11/26 04:01:26;;;;;;;19.57;8.60;;;3.10;97.30;;;;;;5052595;28;20220;-83
2021/11/26 04:03:52;;;;;;;23.60;9.57;;;3.10;97.30;;;;;;5053736;28;20259;-83
2021/11/26 04:06:17;;;;;;;22.07;9.47;;;3.10;97.30;;;;;;5052264;28;20203;-83
2021/11/26 04:08:43;;;;;;;20.73;9.23;;;3.10;97.30;;;;;;5053030;28;20167;-84
2021/11/26 04:11:09;;;;;;;20.70;8.90;;;3.10;97.30;;;;;;5052467;28;20195;-82
2021/11/26 04:13:34;;;;;;;23.10;8.80;;;3.10;97.30;;;;;;5052152;28;20218;-81
2021/11/26 04:16:05;;;;;;;22.67;10.60;;;3.10;97.30;;;;;;5052443;28;20752;-83
2021/11/26 04:18:33;;;;;;;28.80;10.23;;;3.10;97.30;;;;;;5052749;28;20247;-82
2021/11/26 04:21:01;;;;;;;29.47;11.03;;;3.10;97.30;;;;;;5052273;28;20800;-82
2021/11/26 04:23:27;;;;;;;25.60;9.87;;;3.00;97.30;;;;;;5052088;28;20470;-83
2021/11/26 04:25:52;;;;;;;33.13;10.33;;;3.00;97.30;;;;;;5052294;28;20523;-83
2021/11/26 04:28:18;;;;;;;22.43;10.27;;;3.00;97.30;;;;;;5051681;28;20176;-82
2021/11/26 04:30:43;;;;;;;31.57;11.33;;;3.00;97.30;;;;;;5052524;28;20637;-82
2021/11/26 04:33:09;;;;;;;29.73;11.10;;;3.00;97.30;;;;;;5052334;28;20179;-82
2021/11/26 04:35:34;;;;;;;26.47;10.20;;;3.00;97.30;;;;;;5052370;28;20210;-82
2021/11/26 04:38:00;;;;;;;30.27;11.40;;;3.00;97.30;;;;;;5052287;28;20180;-83
2021/11/26 04:40:25;;;;;;;25.57;10.77;;;3.00;97.30;;;;;;5052258;28;20187;-83
2021/11/26 04:42:51;;;;;;;33.80;11.93;;;3.00;97.30;;;;;;5051940;28;20670;-83
2021/11/26 04:45:17;;;;;;;29.57;11.00;;;3.00;97.30;;;;;;5051435;28;20222;-82
2021/11/26 04:47:43;;;;;;;28.17;10.90;;;3.00;97.30;;;;;;5051365;28;20178;-83
2021/11/26 04:50:10;;;;;;;26.00;11.33;;;3.00;97.30;;;;;;5051481;28;20558;-82
2021/11/26 04:52:35;;;;;;;29.10;10.60;;;3.00;97.30;;;;;;5051865;28;20498;-83
2021/11/26 04:55:01;;;;;;;25.67;10.80;;;3.00;97.30;;;;;;5052971;28;20514;-82
2021/11/26 04:57:26;;;;;;;27.40;10.40;;;3.00;97.30;;;;;;5051620;28;20183;-83
2021/11/26 04:59:52;;;;;;;26.10;10.40;;;3.00;97.30;;;;;;5051651;28;20190;-83
2021/11/26 05:02:18;;;;;;;29.57;10.47;;;3.00;97.30;;;;;;5051405;28;20222;-82
2021/11/26 05:04:43;;;;;;;24.97;10.47;;;3.00;97.30;;;;;;5051542;28;20681;-82
2021/11/26 05:07:09;;;;;;;26.83;9.97;;;3.00;97.30;;;;;;5051162;28;20307;-81
2021/11/26 05:09:34;;;;;;;22.97;11.10;;;3.00;97.30;;;;;;5051142;28;20182;-82
2021/11/26 05:12:02;;;;;;;30.07;10.10;;;3.00;97.30;;;;;;5051695;28;20172;-81
2021/11/26 05:14:30;;;;;;;27.90;10.77;;;3.00;97.30;;;;;;5052174;28;20184;-82
2021/11/26 05:16:56;;;;;;;33.00;10.23;;;3.00;97.30;;;;;;5052090;28;20975;-82
2021/11/26 05:19:21;;;;;;;33.87;11.80;;;3.00;97.30;;;;;;5052065;28;20418;-81
2021/11/26 05:21:47;;;;;;;26.63;11.20;;;3.00;97.30;;;;;;5051924;28;20642;-81
2021/11/26 05:24:12;;;;;;;27.20;10.93;;;3.10;97.30;;;;;;5052263;28;20653;-84
2021/11/26 05:26:39;;;;;;;30.00;10.13;;;3.10;97.30;;;;;;5053059;28;20202;-83
2021/11/26 05:29:04;;;;;;;32.40;12.83;;;3.10;97.30;;;;;;5051565;28;20172;-84
2021/11/26 05:31:35;;;;;;;23.57;9.90;;;3.10;97.30;;;;;;5051658;28;20488;-83
2021/11/26 05:34:02;;;;;;;26.30;11.13;;;3.10;97.30;;;;;;5053106;28;20149;-84
2021/11/26 05:36:28;;;;;;;23.13;9.70;;;3.10;97.30;;;;;;5051696;28;20430;-83
2021/11/26 05:38:53;;;;;;;24.63;9.77;;;3.10;97.30;;;;;;5053674;28;20433;-84
2021/11/26 05:41:19;;;;;;;23.77;9.90;;;3.10;97.30;;;;;;5055485;28;20190;-84
2021/11/26 05:43:44;;;;;;;20.03;9.20;;;3.10;97.30;;;;;;5055268;28;20187;-84
2021/11/26 05:46:10;;;;;;;27.20;11.10;;;3.10;97.30;;;;;;5055784;28;20206;-83
2021/11/26 05:48:35;;;;;;;31.53;11.87;;;3.10;97.30;;;;;;5055806;28;20175;-83
2021/11/26 05:51:01;;;;;;;23.97;11.63;;;3.10;97.30;;;;;;5055636;28;20168;-83
2021/11/26 05:53:26;;;;;;;27.30;10.73;;;3.10;97.30;;;;;;5055306;28;20211;-84
2021/11/26 05:55:52;;;;;;;26.60;11.40;;;3.10;97.30;;;;;;5054912;28;20196;-84
2021/11/26 05:58:18;;;;;;;28.40;11.37;;;3.10;97.30;;;;;;5055407;28;20178;-83
2021/11/26 06:00:43;;;;;;;27.10;10.63;;;3.10;97.30;;;;;;5055426;28;20199;-82
2021/11/26 06:03:09;;;;;;;25.87;10.33;;;3.10;97.30;;;;;;5055250;28;20642;-83
2021/11/26 06:05:34;;;;;;;27.17;11.90;;;3.10;97.30;;;;;;5055098;28;20203;-83
2021/11/26 06:08:00;;;;;;;30.33;9.60;;;3.00;97.30;;;;;;5055125;28;20254;-83
2021/11/26 06:10:26;;;;;;;25.77;10.40;;;3.00;97.30;;;;;;5054682;28;20712;-83
2021/11/26 06:12:52;;;;;;;35.23;11.60;;;3.00;97.30;;;;;;5054832;28;20171;-83
2021/11/26 06:15:20;;;;;;;30.70;11.73;;;3.00;97.30;;;;;;5056284;28;20227;-83
2021/11/26 06:17:46;;;;;;;28.23;10.57;;;2.90;97.30;;;;;;5049295;28;20468;-83
2021/11/26 06:20:12;;;;;;;32.77;12.07;;;2.90;97.30;;;;;;5034999;28;20513;-82
2021/11/26 06:22:42;;;;;;;23.27;10.13;;;2.80;97.30;;;;;;5034426;28;20227;-83
2021/11/26 06:25:12;;;;;;;26.77;10.60;;;2.80;97.30;;;;;;5034642;28;20451;-83
2021/11/26 06:27:38;;;;;;;27.27;10.60;;;2.80;97.30;;;;;;5035048;28;20494;-85
2021/11/26 06:30:05;;;;;;;20.33;8.50;;;2.80;97.30;;;;;;5034862;28;20419;-84
2021/11/26 06:32:31;;;;;;;27.77;10.20;;;2.80;97.30;;;;;;5036338;28;20422;-84
2021/11/26 06:34:56;;;;;;;31.43;10.87;;;2.80;97.30;;;;;;5034731;28;20817;-85
2021/11/26 06:37:22;;;;;;;27.63;9.97;;;2.80;97.30;;;;;;5033521;28;20176;-84
2021/11/26 06:39:48;;;;;;;24.57;10.00;;;2.80;97.30;;;;;;5033824;28;20180;-84
2021/11/26 06:42:13;;;;;;;25.70;10.63;;;2.80;97.30;;;;;;5033684;28;20203;-84
2021/11/26 06:44:39;;;;;;;26.30;9.60;;;2.80;97.30;;;;;;5034123;28;20577;-84
2021/11/26 06:47:05;;;;;;;26.90;9.83;;;2.80;97.30;;;;;;5033599;28;20303;-84
2021/11/26 06:49:31;;;;;;;27.40;10.00;;;2.80;97.30;;;;;;5033063;28;20275;-84
2021/11/26 06:51:56;;;;;;;30.67;10.23;;;2.80;97.30;;;;;;5033678;28;20183;-83
2021/11/26 06:54:22;;;;;;;30.57;10.00;;;2.80;97.30;;;;;;5033473;28;20443;-84
2021/11/26 06:56:48;;;;;;;28.23;10.93;;;2.80;97.30;;;;;;5033707;28;20196;-84
2021/11/26 06:59:13;;;;;;;24.47;10.57;;;2.80;97.30;;;;;;5033691;28;20180;-84
2021/11/26 07:01:39;;;;;;;26.27;10.80;;;2.90;97.30;;;;;;5033551;28;20190;-84
2021/11/26 07:04:07;;;;;;;27.70;10.00;;;2.90;97.30;;;;;;5032970;28;20211;-84
2021/11/26 07:06:33;;;;;;;29.00;10.50;;;2.90;97.30;;;;;;5033302;28;20205;-84
2021/11/26 07:08:58;;;;;;;29.50;10.20;;;2.90;97.30;;;;;;5033065;28;20419;-83
2021/11/26 07:11:24;;;;;;;31.27;12.30;;;2.90;97.30;;;;;;5033210;28;20426;-83
2021/11/26 07:13:50;;;;;;;24.03;9.77;;;3.00;97.30;;;;;;5033180;28;20168;-84
2021/11/26 07:16:15;;;;;;;25.63;9.73;;;3.00;97.30;;;;;;5033187;28;20188;-84
2021/11/26 07:18:41;;;;;;;24.37;10.50;;;3.00;97.30;;;;;;5033202;28;20401;-82
2021/11/26 07:21:07;;;;;;;28.57;10.90;;;3.00;97.30;;;;;;5032818;28;20177;-83
2021/11/26 07:23:32;;;;;;;25.43;9.60;;;3.10;97.30;;;;;;5033090;28;20232;-83
2021/11/26 07:25:58;;;;;;;33.47;11.40;;;3.10;97.30;;;;;;5032586;28;20310;-83
2021/11/26 07:28:24;;;;;;;24.93;9.20;;;3.10;97.30;;;;;;5032632;28;20184;-84
2021/11/26 07:30:49;;;;;;;29.20;11.07;;;3.20;97.30;;;;;;5032671;28;20188;-83
2021/11/26 07:33:15;;;;;;;27.27;10.53;;;3.20;97.30;;;;;;5033114;28;20416;-83
2021/11/26 07:35:41;;;;;;;24.20;10.07;;;3.20;97.30;;;;;;5032692;28;20196;-83
2021/11/26 07:38:07;;;;;;;41.63;10.70;;;3.20;97.30;;;;;;5032478;28;20177;-84
2021/11/26 07:40:32;;;;;;;26.13;10.63;;;3.30;97.30;;;;;;5032389;28;20180;-84
2021/11/26 07:42:58;;;;;;;25.47;10.10;;;3.30;97.30;;;;;;5032355;28;20955;-83
2021/11/26 07:45:24;;;;;;;28.00;10.23;;;3.30;97.30;;;;;;5032750;28;20204;-84
2021/11/26 07:47:51;;;;;;;35.17;10.33;;;3.30;97.30;;;;;;5032553;28;20204;-82
2021/11/26 07:50:16;;;;;;;35.73;10.07;;;3.40;97.30;;;;;;5032514;28;20411;-82
2021/11/26 07:52:42;;;;;;;28.07;10.10;;;3.40;97.30;;;;;;5032271;28;20549;-83
2021/11/26 07:55:09;;;;;;;27.70;9.87;;;3.40;97.30;;;;;;5032167;28;20422;-84
2021/11/26 07:57:36;;;;;;;28.23;9.30;;;3.50;97.30;;;;;;5032405;28;20412;-84
2021/11/26 08:00:04;;;;;;;31.30;10.53;;;3.50;97.30;;;;;;5032268;28;20472;-84
2021/11/26 08:02:30;;;;;;;25.30;10.10;;;3.50;97.30;;;;;;5031263;28;20462;-84
2021/11/26 08:04:55;;;;;;;29.80;10.50;;;3.60;97.30;;;;;;5031855;28;20491;-84
2021/11/26 08:07:21;;;;;;;24.60;10.77;;;3.60;97.30;;;;;;5031999;28;20169;-84
2021/11/26 08:09:46;;;;;;;26.40;8.93;;;3.60;97.30;;;;;;5032101;28;20176;-83
2021/11/26 08:12:12;;;;;;;21.73;8.80;;;3.70;97.30;;;;;;5032125;28;20184;-82
2021/11/26 08:14:38;;;;;;;26.47;9.57;;;3.70;97.30;;;;;;5032014;28;20574;-84
2021/11/26 08:17:03;;;;;;;23.67;9.00;;;3.70;97.30;;;;;;5032040;28;20592;-83
2021/11/26 08:19:29;;;;;;;22.90;9.20;;;3.70;97.30;;;;;;5031961;28;20714;-83
2021/11/26 08:21:56;;;;;;;23.00;9.00;;;3.80;97.30;;;;;;5031923;28;20208;-83
2021/11/26 08:24:23;;;;;;;21.07;11.10;;;3.80;97.30;;;;;;5031751;28;20291;-83
2021/11/26 08:26:50;;;;;;;25.60;8.20;;;3.80;97.30;;;;;;5031783;28;20885;-82
2021/11/26 08:29:16;;;;;;;24.30;8.90;;;3.90;97.30;;;;;;5031822;28;20406;-84
2021/11/26 08:31:42;;;;;;;25.27;9.90;;;3.90;97.30;;;;;;5031686;28;20419;-83
2021/11/26 08:34:08;;;;;;;22.73;8.83;;;4.00;97.30;;;;;;5031773;28;20423;-83
2021/11/26 08:36:34;;;;;;;27.63;8.37;;;4.00;97.30;;;;;;5031477;28;20526;-84
2021/11/26 08:39:01;;;;;;;23.23;9.30;;;4.00;97.30;;;;;;5031527;28;20411;-84
2021/11/26 08:41:27;;;;;;;20.33;9.17;;;4.10;97.30;;;;;;5031756;28;20455;-84
2021/11/26 08:43:53;;;;;;;21.30;9.37;;;4.10;97.30;;;;;;5031734;28;20430;-83
2021/11/26 08:46:19;;;;;;;18.17;7.27;;;4.10;97.30;;;;;;5031608;28;20819;-83
2021/11/26 08:48:45;;;;;;;22.77;8.50;;;4.20;97.30;;;;;;5033156;28;20407;-83
2021/11/26 08:51:11;;;;;;;26.73;9.60;;;4.20;97.30;;;;;;5031420;28;20173;-83
2021/11/26 08:53:43;;;;;;;21.20;8.20;;;4.20;97.30;;;;;;5031561;28;20412;-83
2021/11/26 08:56:09;;;;;;;19.87;7.20;;;4.20;97.30;;;;;;5031760;28;20435;-82
2021/11/26 08:58:36;;;;;;;15.80;6.40;;;4.20;97.30;;;;;;5031957;28;20454;-83
2021/11/26 09:01:02;;;;;;;18.53;6.97;;;4.20;97.30;;;;;;5031473;28;20415;-84
2021/11/26 09:03:28;;;;;;;22.67;7.57;;;4.30;97.30;;;;;;5031428;28;20419;-83
2021/11/26 09:05:53;;;;;;;28.80;8.10;;;4.30;97.30;;;;;;5032601;28;21006;-82
2021/11/26 09:08:19;;;;;;;16.10;6.17;;;4.30;97.30;;;;;;5031357;28;20657;-82
2021/11/26 09:10:47;;;;;;;19.60;7.90;;;4.30;97.30;;;;;;5031387;28;20172;-82
2021/11/26 09:13:15;;;;;;;18.67;7.00;;;4.30;97.30;;;;;;5034353;28;20577;-84
2021/11/26 09:15:41;;;;;;;21.20;6.80;;;4.40;97.30;;;;;;5035328;28;20435;-82
2021/11/26 09:18:08;;;;;;;13.97;6.83;;;4.40;97.30;;;;;;5035554;28;20809;-84
2021/11/26 09:20:34;;;;;;;13.93;6.57;;;4.40;97.30;;;;;;5035466;28;20790;-82
2021/11/26 09:23:00;;;;;;;16.30;7.37;;;4.50;97.30;;;;;;5034990;28;20506;-83
2021/11/26 09:25:26;;;;;;;14.43;6.70;;;4.50;97.30;;;;;;5035198;28;21011;-83
2021/11/26 09:27:52;;;;;;;13.23;5.10;;;4.60;97.30;;;;;;5035414;28;20180;-83
2021/11/26 09:30:20;;;;;;;16.13;5.93;;;4.60;97.30;;;;;;5036802;28;20184;-82
2021/11/26 09:32:46;;;;;;;18.50;6.47;;;4.60;97.30;;;;;;5035116;28;20415;-83
2021/11/26 09:35:13;;;;;;;14.57;5.63;;;4.70;97.30;;;;;;5035295;28;20427;-83
2021/11/26 09:37:39;;;;;;;15.80;5.47;;;4.70;97.30;;;;;;5035208;28;20924;-83
2021/11/26 09:40:09;;;;;;;10.07;4.97;;;4.70;97.30;;;;;;5035878;28;20419;-83
2021/11/26 09:42:35;;;;;;;17.43;6.10;;;4.80;97.30;;;;;;5036944;28;20411;-84
2021/11/26 09:45:01;;;;;;;16.80;5.20;;;4.80;97.30;;;;;;5036343;28;20869;-84
2021/11/26 09:47:27;;;;;;;14.77;5.60;;;4.80;97.30;;;;;;5036330;28;20407;-84
2021/11/26 09:49:54;;;;;;;9.97;4.20;;;4.90;97.30;;;;;;5037500;28;20547;-83
2021/11/26 09:52:19;;;;;;;11.10;3.90;;;4.90;97.30;;;;;;5038143;28;20451;-83
2021/11/26 09:54:47;;;;;;;11.30;4.40;;;4.90;97.30;;;;;;5036794;28;20438;-83
2021/11/26 09:57:13;;;;;;;8.67;4.23;;;4.90;97.30;;;;;;5036826;28;20197;-83
2021/11/26 09:59:42;;;;;;;9.57;4.83;;;4.90;97.30;;;;;;5036802;28;20822;-83
2021/11/26 10:02:13;;;;;;;8.00;3.90;;;5.00;97.30;;;;;;5037406;28;20501;-82
2021/11/26 10:04:39;;;;;;;15.30;5.37;;;5.00;97.30;;;;;;5036727;28;20853;-83
2021/11/26 10:07:05;;;;;;;8.77;4.47;;;5.00;97.30;;;;;;5036652;28;20439;-83
2021/11/26 10:09:34;;;;;;;7.27;3.63;;;5.00;97.30;;;;;;5037880;28;20439;-82
2021/11/26 10:12:08;;;;;;;10.77;4.23;;;5.10;97.30;;;;;;5036398;28;20414;-83
2021/11/26 10:14:37;;;;;;;10.80;4.20;;;5.10;97.30;;;;;;5036200;28;21070;-83
2021/11/26 10:17:12;;;;;;;12.10;4.53;;;5.10;97.30;;;;;;5037114;28;20435;-83
2021/11/26 10:19:46;;;;;;;11.20;4.03;;;5.20;97.30;;;;;;5037092;28;20967;-82
2021/11/26 10:22:24;;;;;;;8.30;4.10;;;5.20;97.30;;;;;;5037346;28;20463;-83
2021/11/26 10:25:17;;;;;;;11.50;3.90;;;5.20;97.30;;;;;;5036056;28;20461;-82
2021/11/26 10:27:46;;;;;;;12.40;3.40;;;5.30;97.30;;;;;;5035936;28;20412;-82
2021/11/26 10:30:31;;;;;;;11.53;3.90;;;5.20;96.40;;;;;;5037054;28;20483;-83
2021/11/26 10:32:59;;;;;;;7.03;3.53;;;5.20;96.30;;;;;;5035702;28;20418;-83
2021/11/26 10:35:30;;;;;;;8.80;3.70;;;5.20;96.00;;;;;;5036458;28;20536;-83
2021/11/26 10:38:09;;;;;;;9.43;2.97;;;5.20;95.60;;;;;;5036087;28;20426;-83
2021/11/26 10:40:38;;;;;;;7.50;2.80;;;5.20;94.80;;;;;;5035723;28;20411;-83
2021/11/26 10:43:10;;;;;;;5.90;3.00;;;5.20;94.20;;;;;;5035558;28;20494;-83
2021/11/26 10:45:53;;;;;;;15.37;2.90;;;5.20;94.00;;;;;;5036124;28;20984;-82
2021/11/26 10:59:10;;;;;;;5.97;2.77;;;5.80;92.10;;;;;;5056649;28;20429;-84
2021/11/26 11:01:44;;;;;;;2.77;2.57;;;6.10;90.90;;;;;;5038674;28;20449;-82
2021/11/26 11:04:14;;;;;;;4.10;2.00;;;6.30;89.40;;;;;;5035180;28;20176;-82
2021/11/26 11:06:39;;;;;;;5.47;2.23;;;6.30;88.90;;;;;;5035177;28;20446;-82
2021/11/26 11:09:08;;;;;;;12.07;3.00;;;6.40;89.20;;;;;;5036049;28;20773;-83
2021/11/26 11:11:34;;;;;;;4.07;2.17;;;6.50;88.70;;;;;;5035607;28;20173;-83
2021/11/26 11:14:12;;;;;;;7.20;2.60;;;6.50;88.80;;;;;;5035947;28;20430;-82
2021/11/26 11:16:46;;;;;;;6.43;2.63;;;6.50;88.20;;;;;;5035445;28;20983;-80
2021/11/26 11:19:12;;;;;;;6.00;3.00;;;6.40;88.00;;;;;;5035113;28;20517;-80
2021/11/26 11:21:38;;;;;;;7.13;2.73;;;6.40;87.90;;;;;;5018911;28;20937;-83
2021/11/26 11:24:05;;;;;;;3.30;2.60;;;6.50;87.80;;;;;;5035111;28;20201;-84
2021/11/26 11:26:30;;;;;;;5.77;2.93;;;6.60;87.30;;;;;;5035203;28;20449;-84
2021/11/26 11:28:57;;;;;;;3.97;2.40;;;6.70;87.30;;;;;;5034971;28;20443;-83
2021/11/26 11:31:23;;;;;;;3.50;2.20;;;6.90;87.00;;;;;;5034877;28;20176;-83
2021/11/26 11:33:50;;;;;;;8.53;2.30;;;7.10;86.50;;;;;;5035308;28;20541;-83
2021/11/26 11:36:16;;;;;;;5.70;3.07;;;7.10;85.90;;;;;;5034771;28;20235;-83
2021/11/26 11:38:41;;;;;;;5.50;2.30;;;7.20;85.40;;;;;;5034677;28;20421;-83
2021/11/26 11:41:09;;;;;;;5.47;2.23;;;7.40;85.00;;;;;;5034964;28;20435;-84
2021/11/26 11:43:44;;;;;;;5.17;2.20;;;7.60;84.80;;;;;;5034365;28;20267;-83
2021/11/26 11:46:12;;;;;;;5.23;2.30;;;7.50;84.20;;;;;;5034126;28;20808;-83
2021/11/26 11:48:44;;;;;;;5.60;3.00;;;7.40;84.50;;;;;;5034562;28;20415;-82
2021/11/26 11:51:24;;;;;;;5.53;2.80;;;7.40;84.70;;;;;;5035260;28;20419;-84
2021/11/26 11:54:10;;;;;;;9.83;4.10;;;7.50;84.70;;;;;;5034602;28;20909;-83
2021/11/26 11:56:50;;;;;;;9.73;2.63;;;7.70;85.20;;;;;;5035138;28;20445;-83
2021/11/26 11:59:31;;;;;;;4.40;2.63;;;7.90;84.00;;;;;;5037988;28;20448;-83
2021/11/26 12:01:58;;;;;;;6.47;3.27;;;7.80;83.90;;;;;;5054422;28;20430;-83
2021/11/26 12:04:26;;;;;;;4.23;3.37;;;7.60;83.90;;;;;;5054176;28;20465;-82
2021/11/26 12:06:53;;;;;;;8.53;2.30;;;7.80;84.80;;;;;;5053995;28;20441;-83
2021/11/26 12:09:22;;;;;;;6.73;2.60;;;8.00;83.90;;;;;;5054097;28;20505;-84
2021/11/26 12:11:49;;;;;;;3.53;2.50;;;8.20;84.00;;;;;;5054157;28;20422;-83
2021/11/26 12:14:15;;;;;;;7.47;2.53;;;8.30;83.50;;;;;;5053032;28;20430;-81
2021/11/26 12:16:52;;;;;;;4.63;3.13;;;8.50;83.90;;;;;;5053023;28;20962;-81
2021/11/26 12:19:23;;;;;;;4.90;2.83;;;8.70;83.30;;;;;;5053407;28;20422;-83
2021/11/26 12:21:51;;;;;;;8.53;3.30;;;9.00;82.90;;;;;;5053678;28;20822;-84
2021/11/26 12:24:23;;;;;;;7.20;2.70;;;9.00;82.70;;;;;;5053276;28;20466;-81
2021/11/26 12:27:00;;;;;;;5.37;3.00;;;8.80;82.40;;;;;;5052950;28;20459;-80
2021/11/26 12:29:30;;;;;;;12.23;2.67;;;8.60;83.20;;;;;;5052744;28;20827;-80
2021/11/26 12:32:06;;;;;;;5.80;2.80;;;8.50;83.20;;;;;;5053516;28;20927;-81
2021/11/26 12:34:40;;;;;;;8.97;2.57;;;8.40;83.70;;;;;;5052903;28;20452;-83
2021/11/26 12:37:25;;;;;;;3.73;2.23;;;8.50;84.00;;;;;;5053271;28;20790;-83
2021/11/26 12:40:00;;;;;;;4.10;2.37;;;8.60;83.80;;;;;;5053408;28;20920;-83
2021/11/26 12:42:27;;;;;;;5.17;2.23;;;8.70;83.70;;;;;;5052729;28;20425;-81
2021/11/26 12:45:06;;;;;;;6.20;3.10;;;8.60;83.40;;;;;;5052102;28;20975;-81
2021/11/26 12:48:00;;;;;;;8.83;3.17;;;8.70;83.50;;;;;;5051562;28;20426;-80
2021/11/26 12:53:20;;;;;;;4.43;2.60;;;8.30;84.00;;;;;;5053731;28;20410;-82
2021/11/26 12:56:03;;;;;;;10.33;2.47;;;8.40;83.20;;;;;;5052824;28;20484;-84
2021/11/26 12:58:30;;;;;;;3.80;2.00;;;8.70;83.80;;;;;;5052570;28;20414;-84
2021/11/26 13:01:04;;;;;;;6.07;2.80;;;9.00;82.90;;;;;;5052762;28;20418;-81